sensor_id;sensor_type;location;lat;lon;timestamp;noise_LAeq;noise_LA_min;noise_LA_max;noise_LA01;noise_LA95
49732;Laerm;43666;51.442;6.778;2023-03-14T00:02:08;38.30;31.68;42.29;;
49732;Laerm;43666;51.442;6.778;2023-03-14T00:04:34;38.55;30.89;43.29;;
49732;Laerm;43666;51.442;6.778;2023-03-14T00:07:00;38.47;32.93;42.76;;
49732;Laerm;43666;51.442;6.778;2023-03-14T00:09:26;38.45;33.44;42.35;;
49732;Laerm;43666;51.442;6.778;2023-03-14T00:11:53;38.45;32.35;42.59;;
49732;Laerm;43666;51.442;6.778;2023-03-14T00:14:19;38.33;32.93;41.96;;
49732;Laerm;43666;51.442;6.778;2023-03-14T00:16:46;38.53;32.93;43.09;;
49732;Laerm;43666;51.442;6.778;2023-03-14T00:19:12;38.55;32.93;43.44;;
49732;Laerm;43666;51.442;6.778;2023-03-14T00:21:38;38.58;32.93;48.74;;
49732;Laerm;43666;51.442;6.778;2023-03-14T00:24:04;38.32;32.35;45.60;;
49732;Laerm;43666;51.442;6.778;2023-03-14T00:26:31;47.16;5.00;75.39;;
49732;Laerm;43666;51.442;6.778;2023-03-14T00:28:57;42.71;32.35;72.27;;
49732;Laerm;43666;51.442;6.778;2023-03-14T00:31:23;38.14;31.68;42.09;;
49732;Laerm;43666;51.442;6.778;2023-03-14T00:33:51;38.13;31.68;42.29;;
49732;Laerm;43666;51.442;6.778;2023-03-14T00:36:17;42.50;31.68;66.53;;
49732;Laerm;43666;51.442;6.778;2023-03-14T00:38:44;38.50;30.89;41.61;;
49732;Laerm;43666;51.442;6.778;2023-03-14T00:41:12;39.12;33.44;42.29;;
49732;Laerm;43666;51.442;6.778;2023-03-14T00:43:39;39.38;34.31;43.77;;
49732;Laerm;43666;51.442;6.778;2023-03-14T00:46:05;40.13;32.35;43.68;;
49732;Laerm;43666;51.442;6.778;2023-03-14T00:48:32;40.09;33.44;43.24;;
49732;Laerm;43666;51.442;6.778;2023-03-14T00:50:57;40.20;34.31;48.70;;
49732;Laerm;43666;51.442;6.778;2023-03-14T00:53:23;40.88;32.35;69.97;;
49732;Laerm;43666;51.442;6.778;2023-03-14T00:55:49;39.70;33.90;43.39;;
49732;Laerm;43666;51.442;6.778;2023-03-14T00:58:15;40.09;33.90;43.55;;
49732;Laerm;43666;51.442;6.778;2023-03-14T01:00:42;40.32;33.90;45.72;;
49732;Laerm;43666;51.442;6.778;2023-03-14T01:03:08;44.34;34.31;78.55;;
49732;Laerm;43666;51.442;6.778;2023-03-14T01:05:35;39.16;33.90;45.20;;
49732;Laerm;43666;51.442;6.778;2023-03-14T01:08:02;38.21;29.92;54.25;;
49732;Laerm;43666;51.442;6.778;2023-03-14T01:10:28;38.47;30.89;47.63;;
49732;Laerm;43666;51.442;6.778;2023-03-14T01:12:54;38.65;32.35;43.04;;
49732;Laerm;43666;51.442;6.778;2023-03-14T01:15:20;38.83;31.68;46.95;;
49732;Laerm;43666;51.442;6.778;2023-03-14T01:17:47;38.37;29.92;42.71;;
49732;Laerm;43666;51.442;6.778;2023-03-14T01:20:14;38.62;30.89;51.30;;
49732;Laerm;43666;51.442;6.778;2023-03-14T01:22:40;38.45;31.68;42.29;;
49732;Laerm;43666;51.442;6.778;2023-03-14T01:25:07;38.01;29.92;50.46;;
49732;Laerm;43666;51.442;6.778;2023-03-14T01:27:33;37.35;29.92;41.30;;
49732;Laerm;43666;51.442;6.778;2023-03-14T01:29:59;37.73;28.67;42.41;;
49732;Laerm;43666;51.442;6.778;2023-03-14T01:32:25;37.30;29.92;41.53;;
49732;Laerm;43666;51.442;6.778;2023-03-14T01:34:51;37.48;29.92;41.68;;
49732;Laerm;43666;51.442;6.778;2023-03-14T01:37:17;37.36;30.89;42.29;;
49732;Laerm;43666;51.442;6.778;2023-03-14T01:39:43;37.61;30.89;42.42;;
49732;Laerm;43666;51.442;6.778;2023-03-14T01:42:09;37.35;29.92;40.62;;
49732;Laerm;43666;51.442;6.778;2023-03-14T01:44:54;37.46;31.68;41.53;;
49732;Laerm;43666;51.442;6.778;2023-03-14T01:47:20;37.38;28.67;40.71;;
49732;Laerm;43666;51.442;6.778;2023-03-14T01:49:50;37.25;28.67;40.33;;
49732;Laerm;43666;51.442;6.778;2023-03-14T01:52:19;37.38;30.89;40.62;;
49732;Laerm;43666;51.442;6.778;2023-03-14T01:55:03;37.38;30.54;40.63;;
49732;Laerm;43666;51.442;6.778;2023-03-14T01:57:32;37.51;31.68;41.89;;
49732;Laerm;43666;51.442;6.778;2023-03-14T02:00:08;37.28;26.91;40.53;;
49732;Laerm;43666;51.442;6.778;2023-03-14T02:02:45;37.37;29.92;40.80;;
49732;Laerm;43666;51.442;6.778;2023-03-14T02:05:12;37.18;30.89;40.53;;
49732;Laerm;43666;51.442;6.778;2023-03-14T02:07:41;37.38;30.89;40.98;;
49732;Laerm;43666;51.442;6.778;2023-03-14T02:10:10;37.48;31.68;40.98;;
49732;Laerm;43666;51.442;6.778;2023-03-14T02:12:36;37.41;28.67;40.71;;
49732;Laerm;43666;51.442;6.778;2023-03-14T02:15:04;37.41;29.92;41.06;;
49732;Laerm;43666;51.442;6.778;2023-03-14T02:17:30;37.42;29.92;41.33;;
49732;Laerm;43666;51.442;6.778;2023-03-14T02:22:40;37.44;31.33;40.80;;
49732;Laerm;43666;51.442;6.778;2023-03-14T02:25:17;37.40;29.92;40.89;;
49732;Laerm;43666;51.442;6.778;2023-03-14T02:27:48;37.50;30.89;40.89;;
49732;Laerm;43666;51.442;6.778;2023-03-14T02:30:15;37.46;28.67;42.06;;
49732;Laerm;43666;51.442;6.778;2023-03-14T02:32:43;37.52;31.68;41.89;;
49732;Laerm;43666;51.442;6.778;2023-03-14T02:35:11;37.52;30.89;40.71;;
49732;Laerm;43666;51.442;6.778;2023-03-14T02:37:41;37.44;29.92;40.71;;
49732;Laerm;43666;51.442;6.778;2023-03-14T02:40:08;37.55;30.89;41.06;;
49732;Laerm;43666;51.442;6.778;2023-03-14T02:42:34;37.50;31.68;41.22;;
49732;Laerm;43666;51.442;6.778;2023-03-14T02:45:33;37.49;31.33;41.14;;
49732;Laerm;43666;51.442;6.778;2023-03-14T02:47:46;37.72;29.92;41.14;;
49732;Laerm;43666;51.442;6.778;2023-03-14T02:50:19;37.86;31.68;41.14;;
49732;Laerm;43666;51.442;6.778;2023-03-14T02:52:47;37.69;32.35;41.75;;
49732;Laerm;43666;51.442;6.778;2023-03-14T02:55:23;37.57;31.68;41.46;;
49732;Laerm;43666;51.442;6.778;2023-03-14T02:57:52;37.59;30.89;42.16;;
49732;Laerm;43666;51.442;6.778;2023-03-14T03:00:18;37.66;31.68;40.98;;
49732;Laerm;43666;51.442;6.778;2023-03-14T03:02:44;37.64;30.89;41.06;;
49732;Laerm;43666;51.442;6.778;2023-03-14T03:05:11;37.56;32.35;40.89;;
49732;Laerm;43666;51.442;6.778;2023-03-14T03:07:37;37.57;31.68;41.22;;
49732;Laerm;43666;51.442;6.778;2023-03-14T03:10:04;37.80;31.68;41.48;;
49732;Laerm;43666;51.442;6.778;2023-03-14T03:12:29;38.00;31.68;46.25;;
49732;Laerm;43666;51.442;6.778;2023-03-14T03:14:55;37.65;30.89;45.33;;
49732;Laerm;43666;51.442;6.778;2023-03-14T03:17:20;37.63;30.89;41.53;;
49732;Laerm;43666;51.442;6.778;2023-03-14T03:19:46;37.68;30.89;43.86;;
49732;Laerm;43666;51.442;6.778;2023-03-14T03:22:12;37.70;31.68;41.68;;
49732;Laerm;43666;51.442;6.778;2023-03-14T03:24:38;37.56;31.68;41.22;;
49732;Laerm;43666;51.442;6.778;2023-03-14T03:27:06;37.85;30.89;42.19;;
49732;Laerm;43666;51.442;6.778;2023-03-14T03:29:34;37.87;29.92;41.96;;
49732;Laerm;43666;51.442;6.778;2023-03-14T03:32:00;37.64;31.68;40.98;;
49732;Laerm;43666;51.442;6.778;2023-03-14T03:34:27;37.70;29.92;41.82;;
49732;Laerm;43666;51.442;6.778;2023-03-14T03:36:55;37.85;30.89;41.53;;
49732;Laerm;43666;51.442;6.778;2023-03-14T03:39:21;37.90;29.92;41.89;;
49732;Laerm;43666;51.442;6.778;2023-03-14T03:41:47;37.91;29.92;42.22;;
49732;Laerm;43666;51.442;6.778;2023-03-14T03:44:13;38.12;32.93;42.03;;
49732;Laerm;43666;51.442;6.778;2023-03-14T03:46:39;38.14;31.68;41.96;;
49732;Laerm;43666;51.442;6.778;2023-03-14T03:49:08;37.98;32.35;41.75;;
49732;Laerm;43666;51.442;6.778;2023-03-14T03:51:33;37.67;29.92;44.23;;
49732;Laerm;43666;51.442;6.778;2023-03-14T03:53:59;38.38;32.35;42.85;;
49732;Laerm;43666;51.442;6.778;2023-03-14T03:56:25;38.42;32.93;42.03;;
49732;Laerm;43666;51.442;6.778;2023-03-14T03:58:51;38.55;32.93;41.75;;
49732;Laerm;43666;51.442;6.778;2023-03-14T04:01:17;38.85;33.44;43.39;;
49732;Laerm;43666;51.442;6.778;2023-03-14T04:03:43;38.79;33.44;42.93;;
49732;Laerm;43666;51.442;6.778;2023-03-14T04:06:10;38.61;33.44;42.16;;
49732;Laerm;43666;51.442;6.778;2023-03-14T04:08:36;38.48;32.35;42.16;;
49732;Laerm;43666;51.442;6.778;2023-03-14T04:11:04;38.88;32.93;42.88;;
49732;Laerm;43666;51.442;6.778;2023-03-14T04:13:30;39.21;33.90;42.79;;
49732;Laerm;43666;51.442;6.778;2023-03-14T04:15:56;38.83;32.93;42.76;;
49732;Laerm;43666;51.442;6.778;2023-03-14T04:18:32;39.00;33.90;43.14;;
49732;Laerm;43666;51.442;6.778;2023-03-14T04:21:00;39.72;34.31;42.98;;
49732;Laerm;43666;51.442;6.778;2023-03-14T04:23:27;39.60;34.69;47.80;;
49732;Laerm;43666;51.442;6.778;2023-03-14T04:25:53;39.62;32.93;53.81;;
49732;Laerm;43666;51.442;6.778;2023-03-14T04:28:22;42.92;30.89;76.19;;
49732;Laerm;43666;51.442;6.778;2023-03-14T04:30:48;39.78;28.67;56.77;;
49732;Laerm;43666;51.442;6.778;2023-03-14T04:33:16;38.66;23.90;53.57;;
49732;Laerm;43666;51.442;6.778;2023-03-14T04:35:43;38.18;29.92;52.24;;
49732;Laerm;43666;51.442;6.778;2023-03-14T04:38:14;39.37;28.67;59.88;;
49732;Laerm;43666;51.442;6.778;2023-03-14T04:40:41;38.53;30.89;51.80;;
49732;Laerm;43666;51.442;6.778;2023-03-14T04:43:09;38.14;26.91;50.49;;
49732;Laerm;43666;51.442;6.778;2023-03-14T04:45:46;37.32;29.92;42.16;;
49732;Laerm;43666;51.442;6.778;2023-03-14T04:48:12;38.19;29.92;52.22;;
49732;Laerm;43666;51.442;6.778;2023-03-14T04:50:38;37.82;29.92;50.50;;
49732;Laerm;43666;51.442;6.778;2023-03-14T04:53:04;38.59;29.92;69.76;;
49732;Laerm;43666;51.442;6.778;2023-03-14T04:55:29;36.85;26.91;40.43;;
49732;Laerm;43666;51.442;6.778;2023-03-14T04:58:00;37.46;28.67;53.93;;
49732;Laerm;43666;51.442;6.778;2023-03-14T05:00:26;37.10;28.67;50.17;;
49732;Laerm;43666;51.442;6.778;2023-03-14T05:02:52;36.87;28.67;45.89;;
49732;Laerm;43666;51.442;6.778;2023-03-14T05:05:18;36.97;23.90;41.46;;
49732;Laerm;43666;51.442;6.778;2023-03-14T05:07:44;36.94;28.67;41.14;;
49732;Laerm;43666;51.442;6.778;2023-03-14T05:10:10;37.01;28.67;40.89;;
49732;Laerm;43666;51.442;6.778;2023-03-14T05:12:36;37.08;30.89;43.14;;
49732;Laerm;43666;51.442;6.778;2023-03-14T05:15:02;36.98;28.67;41.82;;
49732;Laerm;43666;51.442;6.778;2023-03-14T05:17:33;37.01;26.91;45.27;;
49732;Laerm;43666;51.442;6.778;2023-03-14T05:19:58;37.09;28.67;46.10;;
49732;Laerm;43666;51.442;6.778;2023-03-14T05:22:24;37.05;26.91;44.98;;
49732;Laerm;43666;51.442;6.778;2023-03-14T05:24:50;37.00;26.56;40.33;;
49732;Laerm;43666;51.442;6.778;2023-03-14T05:27:16;36.94;23.90;46.50;;
49732;Laerm;43666;51.442;6.778;2023-03-14T05:29:42;36.98;28.67;53.03;;
49732;Laerm;43666;51.442;6.778;2023-03-14T05:32:07;36.97;29.92;39.92;;
49732;Laerm;43666;51.442;6.778;2023-03-14T05:34:33;37.03;29.92;42.53;;
49732;Laerm;43666;51.442;6.778;2023-03-14T05:36:59;36.96;23.90;45.94;;
49732;Laerm;43666;51.442;6.778;2023-03-14T05:39:25;36.99;26.91;62.59;;
49732;Laerm;43666;51.442;6.778;2023-03-14T05:41:51;36.50;28.67;39.92;;
49732;Laerm;43666;51.442;6.778;2023-03-14T05:44:16;36.37;26.91;45.14;;
49732;Laerm;43666;51.442;6.778;2023-03-14T05:46:42;36.27;26.56;39.46;;
49732;Laerm;43666;51.442;6.778;2023-03-14T05:49:08;36.23;26.91;39.46;;
49732;Laerm;43666;51.442;6.778;2023-03-14T05:51:34;36.25;23.90;40.03;;
49732;Laerm;43666;51.442;6.778;2023-03-14T05:53:59;36.32;26.91;39.70;;
49732;Laerm;43666;51.442;6.778;2023-03-14T05:56:25;36.30;26.91;40.03;;
49732;Laerm;43666;51.442;6.778;2023-03-14T05:58:51;36.25;5.00;39.70;;
49732;Laerm;43666;51.442;6.778;2023-03-14T06:01:16;36.24;26.91;40.23;;
49732;Laerm;43666;51.442;6.778;2023-03-14T06:03:43;36.30;23.90;49.92;;
49732;Laerm;43666;51.442;6.778;2023-03-14T06:06:09;36.31;26.91;48.20;;
49732;Laerm;43666;51.442;6.778;2023-03-14T06:08:35;36.30;26.91;42.41;;
49732;Laerm;43666;51.442;6.778;2023-03-14T06:11:02;36.41;28.67;52.59;;
49732;Laerm;43666;51.442;6.778;2023-03-14T06:13:28;36.28;23.90;46.07;;
49732;Laerm;43666;51.442;6.778;2023-03-14T06:15:54;36.58;26.91;46.20;;
49732;Laerm;43666;51.442;6.778;2023-03-14T06:18:20;36.59;26.91;45.14;;
49732;Laerm;43666;51.442;6.778;2023-03-14T06:20:46;36.59;26.56;40.98;;
49732;Laerm;43666;51.442;6.778;2023-03-14T06:23:11;36.56;23.90;40.33;;
49732;Laerm;43666;51.442;6.778;2023-03-14T06:25:37;36.53;23.90;46.78;;
49732;Laerm;43666;51.442;6.778;2023-03-14T06:28:04;36.29;28.67;40.23;;
49732;Laerm;43666;51.442;6.778;2023-03-14T06:30:30;36.28;26.91;39.81;;
49732;Laerm;43666;51.442;6.778;2023-03-14T06:32:56;36.33;26.56;40.62;;
49732;Laerm;43666;51.442;6.778;2023-03-14T06:35:22;36.24;23.90;39.70;;
49732;Laerm;43666;51.442;6.778;2023-03-14T06:37:48;36.22;26.91;39.81;;
49732;Laerm;43666;51.442;6.778;2023-03-14T06:40:14;36.34;28.67;40.53;;
49732;Laerm;43666;51.442;6.778;2023-03-14T06:42:43;36.24;23.90;39.92;;
49732;Laerm;43666;51.442;6.778;2023-03-14T06:45:08;36.21;23.90;40.53;;
49732;Laerm;43666;51.442;6.778;2023-03-14T06:47:34;36.36;26.91;48.26;;
49732;Laerm;43666;51.442;6.778;2023-03-14T06:50:00;36.14;26.91;39.34;;
49732;Laerm;43666;51.442;6.778;2023-03-14T06:52:27;36.12;23.90;49.27;;
49732;Laerm;43666;51.442;6.778;2023-03-14T06:54:53;36.03;26.91;39.81;;
49732;Laerm;43666;51.442;6.778;2023-03-14T06:57:19;35.99;23.90;39.58;;
49732;Laerm;43666;51.442;6.778;2023-03-14T06:59:45;36.23;23.90;40.62;;
49732;Laerm;43666;51.442;6.778;2023-03-14T07:02:11;36.15;5.00;40.03;;
49732;Laerm;43666;51.442;6.778;2023-03-14T07:04:40;36.01;23.90;41.68;;
49732;Laerm;43666;51.442;6.778;2023-03-14T07:07:06;36.06;23.90;40.71;;
49732;Laerm;43666;51.442;6.778;2023-03-14T07:09:33;36.04;5.00;40.62;;
49732;Laerm;43666;51.442;6.778;2023-03-14T07:11:59;36.04;26.91;40.03;;
49732;Laerm;43666;51.442;6.778;2023-03-14T07:14:25;36.17;23.90;40.03;;
49732;Laerm;43666;51.442;6.778;2023-03-14T07:16:50;36.05;26.91;43.14;;
49732;Laerm;43666;51.442;6.778;2023-03-14T07:19:16;36.03;28.67;40.62;;
49732;Laerm;43666;51.442;6.778;2023-03-14T07:21:42;35.99;26.91;39.99;;
49732;Laerm;43666;51.442;6.778;2023-03-14T07:24:07;36.07;23.90;40.89;;
49732;Laerm;43666;51.442;6.778;2023-03-14T07:26:33;35.94;5.00;39.58;;
49732;Laerm;43666;51.442;6.778;2023-03-14T07:28:59;35.86;5.00;39.92;;
49732;Laerm;43666;51.442;6.778;2023-03-14T07:31:25;35.87;23.90;39.34;;
49732;Laerm;43666;51.442;6.778;2023-03-14T07:33:51;35.85;5.00;39.81;;
49732;Laerm;43666;51.442;6.778;2023-03-14T07:36:16;35.94;26.91;40.13;;
49732;Laerm;43666;51.442;6.778;2023-03-14T07:38:42;35.86;23.90;40.33;;
49732;Laerm;43666;51.442;6.778;2023-03-14T07:41:08;35.79;23.90;41.55;;
49732;Laerm;43666;51.442;6.778;2023-03-14T07:43:34;35.77;23.90;39.21;;
49732;Laerm;43666;51.442;6.778;2023-03-14T07:46:00;35.82;23.90;40.62;;
49732;Laerm;43666;51.442;6.778;2023-03-14T07:48:26;35.86;26.91;39.46;;
49732;Laerm;43666;51.442;6.778;2023-03-14T07:50:52;35.92;23.90;39.81;;
49732;Laerm;43666;51.442;6.778;2023-03-14T07:53:19;35.90;23.90;39.81;;
49732;Laerm;43666;51.442;6.778;2023-03-14T07:55:45;35.85;5.00;39.81;;
49732;Laerm;43666;51.442;6.778;2023-03-14T07:58:11;35.89;26.91;39.70;;
49732;Laerm;43666;51.442;6.778;2023-03-14T08:00:37;35.88;26.91;39.70;;
49732;Laerm;43666;51.442;6.778;2023-03-14T08:03:03;35.84;5.00;39.46;;
49732;Laerm;43666;51.442;6.778;2023-03-14T08:05:29;35.84;23.90;39.58;;
49732;Laerm;43666;51.442;6.778;2023-03-14T08:07:55;36.03;5.00;40.33;;
49732;Laerm;43666;51.442;6.778;2023-03-14T08:10:21;35.93;23.90;42.36;;
49732;Laerm;43666;51.442;6.778;2023-03-14T08:12:51;35.83;26.91;39.46;;
49732;Laerm;43666;51.442;6.778;2023-03-14T08:15:18;35.91;26.91;41.30;;
49732;Laerm;43666;51.442;6.778;2023-03-14T08:17:45;35.91;23.90;39.46;;
49732;Laerm;43666;51.442;6.778;2023-03-14T08:20:11;35.91;23.90;39.21;;
49732;Laerm;43666;51.442;6.778;2023-03-14T08:22:37;35.96;23.90;39.46;;
49732;Laerm;43666;51.442;6.778;2023-03-14T08:25:06;35.94;26.91;39.58;;
49732;Laerm;43666;51.442;6.778;2023-03-14T08:27:31;35.88;23.90;39.46;;
49732;Laerm;43666;51.442;6.778;2023-03-14T08:29:57;35.94;26.91;40.33;;
49732;Laerm;43666;51.442;6.778;2023-03-14T08:32:23;35.94;23.90;40.53;;
49732;Laerm;43666;51.442;6.778;2023-03-14T08:34:49;35.91;5.00;39.46;;
49732;Laerm;43666;51.442;6.778;2023-03-14T08:37:14;35.94;23.90;39.92;;
49732;Laerm;43666;51.442;6.778;2023-03-14T08:39:41;35.82;23.90;39.46;;
49732;Laerm;43666;51.442;6.778;2023-03-14T08:42:06;35.80;26.91;39.46;;
49732;Laerm;43666;51.442;6.778;2023-03-14T08:44:32;35.93;23.90;43.39;;
49732;Laerm;43666;51.442;6.778;2023-03-14T08:46:58;35.88;23.90;39.70;;
49732;Laerm;43666;51.442;6.778;2023-03-14T08:49:24;35.87;23.90;41.14;;
49732;Laerm;43666;51.442;6.778;2023-03-14T08:51:52;35.89;5.00;39.58;;
49732;Laerm;43666;51.442;6.778;2023-03-14T08:54:18;35.79;26.91;39.58;;
49732;Laerm;43666;51.442;6.778;2023-03-14T08:56:44;35.90;23.90;39.70;;
49732;Laerm;43666;51.442;6.778;2023-03-14T08:59:10;35.89;23.90;40.71;;
49732;Laerm;43666;51.442;6.778;2023-03-14T09:01:37;35.88;23.55;39.89;;
49732;Laerm;43666;51.442;6.778;2023-03-14T09:04:03;35.87;23.55;41.61;;
49732;Laerm;43666;51.442;6.778;2023-03-14T09:06:28;35.91;23.90;40.43;;
49732;Laerm;43666;51.442;6.778;2023-03-14T09:08:54;35.84;23.90;39.81;;
49732;Laerm;43666;51.442;6.778;2023-03-14T09:11:20;36.08;5.00;41.68;;
49732;Laerm;43666;51.442;6.778;2023-03-14T09:13:45;35.95;23.90;41.14;;
49732;Laerm;43666;51.442;6.778;2023-03-14T09:16:11;35.86;5.00;41.46;;
49732;Laerm;43666;51.442;6.778;2023-03-14T09:18:37;35.77;23.55;40.89;;
49732;Laerm;43666;51.442;6.778;2023-03-14T09:21:04;35.80;23.90;40.03;;
49732;Laerm;43666;51.442;6.778;2023-03-14T09:23:30;35.83;23.90;39.08;;
49732;Laerm;43666;51.442;6.778;2023-03-14T09:25:57;35.99;26.91;39.21;;
49732;Laerm;43666;51.442;6.778;2023-03-14T09:28:23;36.13;23.90;56.46;;
49732;Laerm;43666;51.442;6.778;2023-03-14T09:30:49;35.94;5.00;39.46;;
49732;Laerm;43666;51.442;6.778;2023-03-14T09:33:16;36.00;23.90;39.81;;
49732;Laerm;43666;51.442;6.778;2023-03-14T09:35:42;36.04;26.56;39.70;;
49732;Laerm;43666;51.442;6.778;2023-03-14T09:38:08;36.04;23.90;39.46;;
49732;Laerm;43666;51.442;6.778;2023-03-14T09:40:35;36.02;23.90;39.70;;
49732;Laerm;43666;51.442;6.778;2023-03-14T09:43:00;36.02;23.90;39.34;;
49732;Laerm;43666;51.442;6.778;2023-03-14T09:45:27;36.00;23.90;43.39;;
49732;Laerm;43666;51.442;6.778;2023-03-14T09:47:55;36.05;5.00;43.63;;
49732;Laerm;43666;51.442;6.778;2023-03-14T09:50:21;36.08;26.91;39.58;;
49732;Laerm;43666;51.442;6.778;2023-03-14T09:52:48;35.98;26.91;39.81;;
49732;Laerm;43666;51.442;6.778;2023-03-14T09:55:16;36.21;23.90;39.58;;
49732;Laerm;43666;51.442;6.778;2023-03-14T09:57:43;36.19;26.56;39.81;;
49732;Laerm;43666;51.442;6.778;2023-03-14T10:00:13;36.37;5.00;39.92;;
49732;Laerm;43666;51.442;6.778;2023-03-14T10:02:40;36.33;26.91;44.27;;
49732;Laerm;43666;51.442;6.778;2023-03-14T10:05:17;36.20;23.90;39.46;;
49732;Laerm;43666;51.442;6.778;2023-03-14T10:07:44;36.40;5.00;39.70;;
49732;Laerm;43666;51.442;6.778;2023-03-14T10:10:19;36.30;5.00;40.33;;
49732;Laerm;43666;51.442;6.778;2023-03-14T10:12:46;36.30;26.91;40.08;;
49732;Laerm;43666;51.442;6.778;2023-03-14T10:15:16;36.40;28.67;48.78;;
49732;Laerm;43666;51.442;6.778;2023-03-14T10:17:49;36.31;5.00;39.92;;
49732;Laerm;43666;51.442;6.778;2023-03-14T10:22:59;36.38;23.90;40.62;;
49732;Laerm;43666;51.442;6.778;2023-03-14T10:25:26;36.30;26.91;39.58;;
49732;Laerm;43666;51.442;6.778;2023-03-14T10:27:53;40.91;26.91;75.36;;
49732;Laerm;43666;51.442;6.778;2023-03-14T10:30:40;36.23;26.91;39.46;;
49732;Laerm;43666;51.442;6.778;2023-03-14T10:33:20;36.20;23.90;39.70;;
49732;Laerm;43666;51.442;6.778;2023-03-14T10:35:46;36.12;23.90;39.70;;
49732;Laerm;43666;51.442;6.778;2023-03-14T10:38:18;36.11;5.00;39.70;;
49732;Laerm;43666;51.442;6.778;2023-03-14T10:40:48;36.19;26.56;39.46;;
49732;Laerm;43666;51.442;6.778;2023-03-14T10:43:16;36.12;5.00;39.46;;
49732;Laerm;43666;51.442;6.778;2023-03-14T10:45:43;36.28;23.90;47.81;;
49732;Laerm;43666;51.442;6.778;2023-03-14T10:50:47;36.39;26.91;40.03;;
49732;Laerm;43666;51.442;6.778;2023-03-14T10:53:16;36.44;5.00;41.53;;
49732;Laerm;43666;51.442;6.778;2023-03-14T10:55:44;36.52;23.90;39.46;;
49732;Laerm;43666;51.442;6.778;2023-03-14T11:00:50;36.47;26.91;39.34;;
49732;Laerm;43666;51.442;6.778;2023-03-14T11:03:17;36.33;23.90;39.70;;
49732;Laerm;43666;51.442;6.778;2023-03-14T11:08:19;36.34;23.90;42.09;;
49732;Laerm;43666;51.442;6.778;2023-03-14T11:10:47;36.11;23.90;39.58;;
49732;Laerm;43666;51.442;6.778;2023-03-14T11:13:39;35.97;23.90;39.34;;
49732;Laerm;43666;51.442;6.778;2023-03-14T11:16:16;35.71;26.91;39.46;;
49732;Laerm;43666;51.442;6.778;2023-03-14T11:21:12;35.68;23.90;39.46;;
49732;Laerm;43666;51.442;6.778;2023-03-14T11:23:46;35.58;23.90;39.21;;
49732;Laerm;43666;51.442;6.778;2023-03-14T11:31:39;35.52;5.00;38.95;;
49732;Laerm;43666;51.442;6.778;2023-03-14T11:39:47;35.50;23.90;38.95;;
49732;Laerm;43666;51.442;6.778;2023-03-14T11:42:18;35.52;23.90;39.46;;
49732;Laerm;43666;51.442;6.778;2023-03-14T11:44:46;35.56;5.00;39.08;;
49732;Laerm;43666;51.442;6.778;2023-03-14T11:49:45;35.55;23.90;39.21;;
49732;Laerm;43666;51.442;6.778;2023-03-14T11:53:01;35.50;23.90;39.46;;
49732;Laerm;43666;51.442;6.778;2023-03-14T11:57:25;35.57;23.90;39.08;;
49732;Laerm;43666;51.442;6.778;2023-03-14T12:10:16;36.23;23.90;39.34;;
49732;Laerm;43666;51.442;6.778;2023-03-14T12:12:42;36.37;28.67;42.09;;
49732;Laerm;43666;51.442;6.778;2023-03-14T12:15:18;36.49;30.89;39.34;;
49732;Laerm;43666;51.442;6.778;2023-03-14T12:17:44;36.51;26.91;39.70;;
49732;Laerm;43666;51.442;6.778;2023-03-14T12:20:18;36.55;29.92;39.81;;
49732;Laerm;43666;51.442;6.778;2023-03-14T12:22:46;36.49;26.91;40.03;;
49732;Laerm;43666;51.442;6.778;2023-03-14T12:25:15;36.37;28.67;39.92;;
49732;Laerm;43666;51.442;6.778;2023-03-14T12:27:45;36.34;26.91;39.46;;
49732;Laerm;43666;51.442;6.778;2023-03-14T12:30:17;36.29;29.92;39.58;;
49732;Laerm;43666;51.442;6.778;2023-03-14T12:32:42;36.33;29.92;39.46;;
49732;Laerm;43666;51.442;6.778;2023-03-14T12:37:52;36.45;26.91;39.46;;
49732;Laerm;43666;51.442;6.778;2023-03-14T12:40:21;36.60;29.92;55.56;;
49732;Laerm;43666;51.442;6.778;2023-03-14T12:42:54;36.50;28.67;39.92;;
49732;Laerm;43666;51.442;6.778;2023-03-14T12:45:25;36.49;28.67;40.33;;
49732;Laerm;43666;51.442;6.778;2023-03-14T12:48:10;36.49;28.67;39.58;;
49732;Laerm;43666;51.442;6.778;2023-03-14T12:50:40;36.49;28.67;39.81;;
49732;Laerm;43666;51.442;6.778;2023-03-14T12:53:13;36.48;26.91;39.35;;
49732;Laerm;43666;51.442;6.778;2023-03-14T12:58:25;36.45;26.91;39.58;;
49732;Laerm;43666;51.442;6.778;2023-03-14T13:00:56;36.41;28.67;39.99;;
49732;Laerm;43666;51.442;6.778;2023-03-14T13:03:23;36.38;28.67;40.13;;
49732;Laerm;43666;51.442;6.778;2023-03-14T13:05:57;36.39;26.91;40.89;;
49732;Laerm;43666;51.442;6.778;2023-03-14T13:08:35;36.39;28.67;42.03;;
49732;Laerm;43666;51.442;6.778;2023-03-14T13:11:01;36.35;26.91;39.58;;
49732;Laerm;43666;51.442;6.778;2023-03-14T13:13:28;36.51;28.67;42.16;;
49732;Laerm;43666;51.442;6.778;2023-03-14T13:15:54;36.43;29.92;40.23;;
49732;Laerm;43666;51.442;6.778;2023-03-14T13:18:32;36.32;26.91;39.92;;
49732;Laerm;43666;51.442;6.778;2023-03-14T13:21:01;36.35;28.67;40.08;;
49732;Laerm;43666;51.442;6.778;2023-03-14T13:23:28;36.37;26.91;39.46;;
49732;Laerm;43666;51.442;6.778;2023-03-14T13:25:55;36.36;28.67;39.46;;
49732;Laerm;43666;51.442;6.778;2023-03-14T13:28:21;36.38;26.91;40.43;;
49732;Laerm;43666;51.442;6.778;2023-03-14T13:30:48;36.34;26.91;39.46;;
49732;Laerm;43666;51.442;6.778;2023-03-14T13:33:17;36.40;29.92;40.89;;
49732;Laerm;43666;51.442;6.778;2023-03-14T13:35:44;36.43;26.91;39.81;;
49732;Laerm;43666;51.442;6.778;2023-03-14T13:38:18;36.52;26.91;40.13;;
49732;Laerm;43666;51.442;6.778;2023-03-14T13:40:44;36.54;28.67;39.70;;
49732;Laerm;43666;51.442;6.778;2023-03-14T13:43:15;36.52;26.91;40.71;;
49732;Laerm;43666;51.442;6.778;2023-03-14T13:45:52;36.57;28.67;40.33;;
49732;Laerm;43666;51.442;6.778;2023-03-14T13:48:18;36.58;29.92;39.70;;
49732;Laerm;43666;51.442;6.778;2023-03-14T13:50:49;36.49;29.92;39.58;;
49732;Laerm;43666;51.442;6.778;2023-03-14T13:53:16;36.52;30.89;39.92;;
49732;Laerm;43666;51.442;6.778;2023-03-14T13:55:41;36.49;29.92;40.03;;
49732;Laerm;43666;51.442;6.778;2023-03-14T13:58:19;36.47;29.92;39.46;;
49732;Laerm;43666;51.442;6.778;2023-03-14T14:00:52;36.54;29.57;39.92;;
49732;Laerm;43666;51.442;6.778;2023-03-14T14:03:19;36.55;26.91;39.46;;
49732;Laerm;43666;51.442;6.778;2023-03-14T14:05:44;36.48;29.92;43.14;;
49732;Laerm;43666;51.442;6.778;2023-03-14T14:08:11;36.43;30.89;39.58;;
49732;Laerm;43666;51.442;6.778;2023-03-14T14:10:37;36.52;29.92;41.53;;
49732;Laerm;43666;51.442;6.778;2023-03-14T14:13:03;36.45;28.67;39.58;;
49732;Laerm;43666;51.442;6.778;2023-03-14T14:15:34;36.47;29.92;40.13;;
49732;Laerm;43666;51.442;6.778;2023-03-14T14:18:03;36.48;29.92;41.06;;
49732;Laerm;43666;51.442;6.778;2023-03-14T14:20:35;36.50;23.90;39.58;;
49732;Laerm;43666;51.442;6.778;2023-03-14T14:23:02;36.52;29.92;39.58;;
49732;Laerm;43666;51.442;6.778;2023-03-14T14:25:28;36.53;30.89;39.46;;
49732;Laerm;43666;51.442;6.778;2023-03-14T14:27:54;36.53;29.92;39.70;;
49732;Laerm;43666;51.442;6.778;2023-03-14T14:32:47;36.54;28.67;39.34;;
49732;Laerm;43666;51.442;6.778;2023-03-14T14:35:30;36.60;30.89;39.46;;
49732;Laerm;43666;51.442;6.778;2023-03-14T14:37:56;36.66;29.92;40.33;;